sensor_id;sensor_type;location;lat;lon;timestamp;P1;P2;P0
26720;PMS1003;15950;51.112;6.966;2022-12-07T00:02:09;020;016;
26720;PMS1003;15950;51.112;6.966;2022-12-07T00:05:09;021;016;
26720;PMS1003;15950;51.112;6.966;2022-12-07T00:08:09;024;017;
26720;PMS1003;15950;51.112;6.966;2022-12-07T00:11:10;023;017;
26720;PMS1003;15950;51.112;6.966;2022-12-07T00:14:10;023;016;
26720;PMS1003;15950;51.112;6.966;2022-12-07T00:17:09;024;017;
26720;PMS1003;15950;51.112;6.966;2022-12-07T00:20:09;024;017;
26720;PMS1003;15950;51.112;6.966;2022-12-07T00:23:09;020;017;
26720;PMS1003;15950;51.112;6.966;2022-12-07T00:26:10;023;016;
26720;PMS1003;15950;51.112;6.966;2022-12-07T00:29:12;022;017;
26720;PMS1003;15950;51.112;6.966;2022-12-07T00:32:09;023;018;
26720;PMS1003;15950;51.112;6.966;2022-12-07T00:35:09;023;016;
26720;PMS1003;15950;51.112;6.966;2022-12-07T00:38:09;023;017;
26720;PMS1003;15950;51.112;6.966;2022-12-07T00:41:13;027;021;
26720;PMS1003;15950;51.112;6.966;2022-12-07T00:44:09;017;012;
26720;PMS1003;15950;51.112;6.966;2022-12-07T00:47:09;021;018;
26720;PMS1003;15950;51.112;6.966;2022-12-07T00:50:09;022;017;
26720;PMS1003;15950;51.112;6.966;2022-12-07T00:53:09;019;014;
26720;PMS1003;15950;51.112;6.966;2022-12-07T00:56:13;020;014;
26720;PMS1003;15950;51.112;6.966;2022-12-07T00:59:10;023;016;
26720;PMS1003;15950;51.112;6.966;2022-12-07T01:02:09;023;017;
26720;PMS1003;15950;51.112;6.966;2022-12-07T01:05:09;021;016;
26720;PMS1003;15950;51.112;6.966;2022-12-07T01:08:09;022;016;
26720;PMS1003;15950;51.112;6.966;2022-12-07T01:11:11;021;015;
26720;PMS1003;15950;51.112;6.966;2022-12-07T01:14:09;019;015;
26720;PMS1003;15950;51.112;6.966;2022-12-07T01:17:09;026;018;
26720;PMS1003;15950;51.112;6.966;2022-12-07T01:20:09;023;016;
26720;PMS1003;15950;51.112;6.966;2022-12-07T01:23:09;022;016;
26720;PMS1003;15950;51.112;6.966;2022-12-07T01:26:11;021;017;
26720;PMS1003;15950;51.112;6.966;2022-12-07T01:29:09;022;016;
26720;PMS1003;15950;51.112;6.966;2022-12-07T01:32:09;020;015;
26720;PMS1003;15950;51.112;6.966;2022-12-07T01:35:09;026;020;
26720;PMS1003;15950;51.112;6.966;2022-12-07T01:38:09;023;020;
26720;PMS1003;15950;51.112;6.966;2022-12-07T01:41:09;020;014;
26720;PMS1003;15950;51.112;6.966;2022-12-07T01:44:10;021;015;
26720;PMS1003;15950;51.112;6.966;2022-12-07T01:47:09;025;019;
26720;PMS1003;15950;51.112;6.966;2022-12-07T01:50:09;028;021;
26720;PMS1003;15950;51.112;6.966;2022-12-07T01:53:09;024;017;
26720;PMS1003;15950;51.112;6.966;2022-12-07T01:56:10;023;016;
26720;PMS1003;15950;51.112;6.966;2022-12-07T01:59:09;024;018;
26720;PMS1003;15950;51.112;6.966;2022-12-07T02:02:10;022;018;
26720;PMS1003;15950;51.112;6.966;2022-12-07T02:05:09;019;013;
26720;PMS1003;15950;51.112;6.966;2022-12-07T02:08:09;021;015;
26720;PMS1003;15950;51.112;6.966;2022-12-07T02:11:09;022;016;
26720;PMS1003;15950;51.112;6.966;2022-12-07T02:14:09;027;019;
26720;PMS1003;15950;51.112;6.966;2022-12-07T02:35:11;025;018;
26720;PMS1003;15950;51.112;6.966;2022-12-07T02:44:10;023;017;
26720;PMS1003;15950;51.112;6.966;2022-12-07T02:47:09;024;017;
26720;PMS1003;15950;51.112;6.966;2022-12-07T02:50:09;023;016;
26720;PMS1003;15950;51.112;6.966;2022-12-07T02:53:27;026;018;
26720;PMS1003;15950;51.112;6.966;2022-12-07T03:11:09;031;025;
26720;PMS1003;15950;51.112;6.966;2022-12-07T03:14:13;026;019;
26720;PMS1003;15950;51.112;6.966;2022-12-07T03:17:12;027;023;
26720;PMS1003;15950;51.112;6.966;2022-12-07T03:20:09;029;023;
26720;PMS1003;15950;51.112;6.966;2022-12-07T03:23:09;032;023;
26720;PMS1003;15950;51.112;6.966;2022-12-07T03:26:09;029;023;
26720;PMS1003;15950;51.112;6.966;2022-12-07T03:29:12;027;020;
26720;PMS1003;15950;51.112;6.966;2022-12-07T03:35:11;024;018;
26720;PMS1003;15950;51.112;6.966;2022-12-07T03:38:13;029;021;
26720;PMS1003;15950;51.112;6.966;2022-12-07T03:41:11;019;013;
26720;PMS1003;15950;51.112;6.966;2022-12-07T03:44:09;027;019;
26720;PMS1003;15950;51.112;6.966;2022-12-07T03:47:13;026;018;
26720;PMS1003;15950;51.112;6.966;2022-12-07T03:50:11;028;020;
26720;PMS1003;15950;51.112;6.966;2022-12-07T03:53:11;028;020;
26720;PMS1003;15950;51.112;6.966;2022-12-07T03:56:09;023;018;
26720;PMS1003;15950;51.112;6.966;2022-12-07T03:59:09;024;017;
26720;PMS1003;15950;51.112;6.966;2022-12-07T04:02:09;023;020;
26720;PMS1003;15950;51.112;6.966;2022-12-07T04:05:09;023;016;
26720;PMS1003;15950;51.112;6.966;2022-12-07T04:08:09;026;021;
26720;PMS1003;15950;51.112;6.966;2022-12-07T04:11:09;027;019;
26720;PMS1003;15950;51.112;6.966;2022-12-07T04:14:09;028;020;
26720;PMS1003;15950;51.112;6.966;2022-12-07T04:17:09;028;020;
26720;PMS1003;15950;51.112;6.966;2022-12-07T04:20:09;021;018;
26720;PMS1003;15950;51.112;6.966;2022-12-07T04:23:09;020;014;
26720;PMS1003;15950;51.112;6.966;2022-12-07T04:26:09;028;021;
26720;PMS1003;15950;51.112;6.966;2022-12-07T04:29:09;023;017;
26720;PMS1003;15950;51.112;6.966;2022-12-07T04:32:09;024;017;
26720;PMS1003;15950;51.112;6.966;2022-12-07T04:35:09;022;016;
26720;PMS1003;15950;51.112;6.966;2022-12-07T04:38:09;021;015;
26720;PMS1003;15950;51.112;6.966;2022-12-07T04:41:09;020;014;
26720;PMS1003;15950;51.112;6.966;2022-12-07T04:44:09;024;017;
26720;PMS1003;15950;51.112;6.966;2022-12-07T04:47:09;017;013;
26720;PMS1003;15950;51.112;6.966;2022-12-07T04:50:09;021;015;
26720;PMS1003;15950;51.112;6.966;2022-12-07T04:53:09;018;014;
26720;PMS1003;15950;51.112;6.966;2022-12-07T04:56:09;017;012;
26720;PMS1003;15950;51.112;6.966;2022-12-07T04:59:09;020;014;
26720;PMS1003;15950;51.112;6.966;2022-12-07T05:02:09;019;014;
26720;PMS1003;15950;51.112;6.966;2022-12-07T05:05:09;020;015;
26720;PMS1003;15950;51.112;6.966;2022-12-07T05:08:09;020;014;
26720;PMS1003;15950;51.112;6.966;2022-12-07T05:11:09;019;013;
26720;PMS1003;15950;51.112;6.966;2022-12-07T05:14:10;020;016;
26720;PMS1003;15950;51.112;6.966;2022-12-07T05:17:09;016;011;
26720;PMS1003;15950;51.112;6.966;2022-12-07T05:20:09;017;012;
26720;PMS1003;15950;51.112;6.966;2022-12-07T05:23:09;016;013;
26720;PMS1003;15950;51.112;6.966;2022-12-07T05:26:09;018;016;
26720;PMS1003;15950;51.112;6.966;2022-12-07T05:32:09;019;013;
26720;PMS1003;15950;51.112;6.966;2022-12-07T05:35:09;020;015;
26720;PMS1003;15950;51.112;6.966;2022-12-07T05:38:09;017;012;
26720;PMS1003;15950;51.112;6.966;2022-12-07T05:41:09;018;013;
26720;PMS1003;15950;51.112;6.966;2022-12-07T05:44:09;019;015;
26720;PMS1003;15950;51.112;6.966;2022-12-07T05:47:09;013;009;
26720;PMS1003;15950;51.112;6.966;2022-12-07T05:50:09;020;016;
26720;PMS1003;15950;51.112;6.966;2022-12-07T05:53:09;017;012;
26720;PMS1003;15950;51.112;6.966;2022-12-07T05:56:09;016;012;
26720;PMS1003;15950;51.112;6.966;2022-12-07T05:59:09;016;014;
26720;PMS1003;15950;51.112;6.966;2022-12-07T06:02:10;015;012;
26720;PMS1003;15950;51.112;6.966;2022-12-07T06:05:09;016;013;
26720;PMS1003;15950;51.112;6.966;2022-12-07T06:08:09;016;011;
26720;PMS1003;15950;51.112;6.966;2022-12-07T06:11:09;013;009;
26720;PMS1003;15950;51.112;6.966;2022-12-07T06:14:09;017;015;
26720;PMS1003;15950;51.112;6.966;2022-12-07T06:17:09;014;012;
26720;PMS1003;15950;51.112;6.966;2022-12-07T06:20:09;015;012;
26720;PMS1003;15950;51.112;6.966;2022-12-07T06:23:09;014;011;
26720;PMS1003;15950;51.112;6.966;2022-12-07T06:26:09;017;012;
26720;PMS1003;15950;51.112;6.966;2022-12-07T06:29:09;013;009;
26720;PMS1003;15950;51.112;6.966;2022-12-07T06:32:09;014;010;
26720;PMS1003;15950;51.112;6.966;2022-12-07T06:35:09;014;010;
26720;PMS1003;15950;51.112;6.966;2022-12-07T06:38:09;013;010;
26720;PMS1003;15950;51.112;6.966;2022-12-07T06:41:09;013;009;
26720;PMS1003;15950;51.112;6.966;2022-12-07T06:44:09;016;012;
26720;PMS1003;15950;51.112;6.966;2022-12-07T06:47:09;013;009;
26720;PMS1003;15950;51.112;6.966;2022-12-07T06:50:09;015;012;
26720;PMS1003;15950;51.112;6.966;2022-12-07T06:53:09;019;014;
26720;PMS1003;15950;51.112;6.966;2022-12-07T06:56:09;016;011;
26720;PMS1003;15950;51.112;6.966;2022-12-07T06:59:09;013;009;
26720;PMS1003;15950;51.112;6.966;2022-12-07T07:02:09;016;013;
26720;PMS1003;15950;51.112;6.966;2022-12-07T07:05:09;013;009;
26720;PMS1003;15950;51.112;6.966;2022-12-07T07:08:09;020;014;
26720;PMS1003;15950;51.112;6.966;2022-12-07T07:11:09;019;013;
26720;PMS1003;15950;51.112;6.966;2022-12-07T07:14:09;012;008;
26720;PMS1003;15950;51.112;6.966;2022-12-07T07:17:09;015;011;
26720;PMS1003;15950;51.112;6.966;2022-12-07T07:20:09;012;010;
26720;PMS1003;15950;51.112;6.966;2022-12-07T07:23:09;013;009;
26720;PMS1003;15950;51.112;6.966;2022-12-07T07:26:09;014;010;
26720;PMS1003;15950;51.112;6.966;2022-12-07T07:29:09;018;014;
26720;PMS1003;15950;51.112;6.966;2022-12-07T07:32:09;016;012;
26720;PMS1003;15950;51.112;6.966;2022-12-07T07:35:09;013;009;
26720;PMS1003;15950;51.112;6.966;2022-12-07T07:38:09;014;010;
26720;PMS1003;15950;51.112;6.966;2022-12-07T07:41:09;016;011;
26720;PMS1003;15950;51.112;6.966;2022-12-07T07:44:09;016;011;
26720;PMS1003;15950;51.112;6.966;2022-12-07T07:47:09;017;012;
26720;PMS1003;15950;51.112;6.966;2022-12-07T07:50:09;013;012;
26720;PMS1003;15950;51.112;6.966;2022-12-07T07:53:09;013;009;
26720;PMS1003;15950;51.112;6.966;2022-12-07T07:56:09;015;011;
26720;PMS1003;15950;51.112;6.966;2022-12-07T07:59:09;014;010;
26720;PMS1003;15950;51.112;6.966;2022-12-07T08:02:12;014;010;
26720;PMS1003;15950;51.112;6.966;2022-12-07T08:05:10;017;012;
26720;PMS1003;15950;51.112;6.966;2022-12-07T08:08:09;020;015;
26720;PMS1003;15950;51.112;6.966;2022-12-07T08:11:09;014;010;
26720;PMS1003;15950;51.112;6.966;2022-12-07T08:14:09;014;010;
26720;PMS1003;15950;51.112;6.966;2022-12-07T08:17:09;017;012;
26720;PMS1003;15950;51.112;6.966;2022-12-07T08:20:09;018;013;
26720;PMS1003;15950;51.112;6.966;2022-12-07T08:23:09;018;014;
26720;PMS1003;15950;51.112;6.966;2022-12-07T08:26:10;016;011;
26720;PMS1003;15950;51.112;6.966;2022-12-07T08:29:09;014;010;
26720;PMS1003;15950;51.112;6.966;2022-12-07T08:32:09;018;013;
26720;PMS1003;15950;51.112;6.966;2022-12-07T08:35:09;017;012;
26720;PMS1003;15950;51.112;6.966;2022-12-07T08:38:09;021;015;
26720;PMS1003;15950;51.112;6.966;2022-12-07T08:41:09;019;014;
26720;PMS1003;15950;51.112;6.966;2022-12-07T08:44:09;019;017;
26720;PMS1003;15950;51.112;6.966;2022-12-07T08:47:09;016;014;
26720;PMS1003;15950;51.112;6.966;2022-12-07T08:50:09;017;012;
26720;PMS1003;15950;51.112;6.966;2022-12-07T08:53:09;016;012;
26720;PMS1003;15950;51.112;6.966;2022-12-07T08:56:09;017;014;
26720;PMS1003;15950;51.112;6.966;2022-12-07T08:59:09;016;012;
26720;PMS1003;15950;51.112;6.966;2022-12-07T09:02:09;016;012;
26720;PMS1003;15950;51.112;6.966;2022-12-07T09:05:09;014;010;
26720;PMS1003;15950;51.112;6.966;2022-12-07T09:08:09;016;011;
26720;PMS1003;15950;51.112;6.966;2022-12-07T09:11:09;016;012;
26720;PMS1003;15950;51.112;6.966;2022-12-07T09:14:09;016;011;
26720;PMS1003;15950;51.112;6.966;2022-12-07T09:17:10;013;009;
26720;PMS1003;15950;51.112;6.966;2022-12-07T09:20:09;012;011;
26720;PMS1003;15950;51.112;6.966;2022-12-07T09:23:09;014;010;
26720;PMS1003;15950;51.112;6.966;2022-12-07T09:26:09;013;009;
26720;PMS1003;15950;51.112;6.966;2022-12-07T09:29:09;017;013;
26720;PMS1003;15950;51.112;6.966;2022-12-07T09:32:09;012;008;
26720;PMS1003;15950;51.112;6.966;2022-12-07T09:35:09;017;013;
26720;PMS1003;15950;51.112;6.966;2022-12-07T09:38:09;017;012;
26720;PMS1003;15950;51.112;6.966;2022-12-07T09:41:09;017;012;
26720;PMS1003;15950;51.112;6.966;2022-12-07T09:44:10;014;010;
26720;PMS1003;15950;51.112;6.966;2022-12-07T09:47:09;014;010;
26720;PMS1003;15950;51.112;6.966;2022-12-07T09:50:15;018;015;
26720;PMS1003;15950;51.112;6.966;2022-12-07T09:53:32;014;010;
26720;PMS1003;15950;51.112;6.966;2022-12-07T09:56:11;012;008;
26720;PMS1003;15950;51.112;6.966;2022-12-07T09:59:12;010;007;
26720;PMS1003;15950;51.112;6.966;2022-12-07T10:08:12;014;011;
26720;PMS1003;15950;51.112;6.966;2022-12-07T10:11:09;016;011;
26720;PMS1003;15950;51.112;6.966;2022-12-07T10:14:12;012;008;
26720;PMS1003;15950;51.112;6.966;2022-12-07T10:23:13;016;011;
26720;PMS1003;15950;51.112;6.966;2022-12-07T10:38:08;009;006;
26720;PMS1003;15950;51.112;6.966;2022-12-07T10:41:08;010;007;
26720;PMS1003;15950;51.112;6.966;2022-12-07T10:44:08;017;012;
26720;PMS1003;15950;51.112;6.966;2022-12-07T10:47:12;014;010;
26720;PMS1003;15950;51.112;6.966;2022-12-07T10:50:13;009;006;
26720;PMS1003;15950;51.112;6.966;2022-12-07T10:56:14;020;014;
26720;PMS1003;15950;51.112;6.966;2022-12-07T11:05:53;008;006;
26720;PMS1003;15950;51.112;6.966;2022-12-07T11:11:30;008;006;
26720;PMS1003;15950;51.112;6.966;2022-12-07T11:29:16;011;008;
26720;PMS1003;15950;51.112;6.966;2022-12-07T11:32:14;010;007;
26720;PMS1003;15950;51.112;6.966;2022-12-07T11:38:13;008;006;
26720;PMS1003;15950;51.112;6.966;2022-12-07T11:41:09;009;006;
26720;PMS1003;15950;51.112;6.966;2022-12-07T11:47:14;015;011;
26720;PMS1003;15950;51.112;6.966;2022-12-07T12:02:12;012;010;
26720;PMS1003;15950;51.112;6.966;2022-12-07T12:05:13;011;008;
26720;PMS1003;15950;51.112;6.966;2022-12-07T12:08:13;008;006;
26720;PMS1003;15950;51.112;6.966;2022-12-07T12:17:55;008;006;
26720;PMS1003;15950;51.112;6.966;2022-12-07T12:26:14;006;004;
26720;PMS1003;15950;51.112;6.966;2022-12-07T12:41:51;016;013;
26720;PMS1003;15950;51.112;6.966;2022-12-07T13:20:08;007;005;
26720;PMS1003;15950;51.112;6.966;2022-12-07T13:23:08;009;006;
26720;PMS1003;15950;51.112;6.966;2022-12-07T13:29:13;005;003;
26720;PMS1003;15950;51.112;6.966;2022-12-07T13:32:22;002;001;
26720;PMS1003;15950;51.112;6.966;2022-12-07T13:44:09;003;002;
26720;PMS1003;15950;51.112;6.966;2022-12-07T13:53:11;004;003;
26720;PMS1003;15950;51.112;6.966;2022-12-07T13:56:12;006;004;
26720;PMS1003;15950;51.112;6.966;2022-12-07T14:06:02;005;004;
26720;PMS1003;15950;51.112;6.966;2022-12-07T14:14:13;005;004;
26720;PMS1003;15950;51.112;6.966;2022-12-07T14:17:12;006;004;
26720;PMS1003;15950;51.112;6.966;2022-12-07T14:21:01;006;006;
26720;PMS1003;15950;51.112;6.966;2022-12-07T14:26:12;004;003;
26720;PMS1003;15950;51.112;6.966;2022-12-07T14:35:09;006;004;
26720;PMS1003;15950;51.112;6.966;2022-12-07T14:38:08;005;003;
26720;PMS1003;15950;51.112;6.966;2022-12-07T14:44:10;007;005;
26720;PMS1003;15950;51.112;6.966;2022-12-07T14:47:09;006;004;
26720;PMS1003;15950;51.112;6.966;2022-12-07T14:50:10;008;007;
26720;PMS1003;15950;51.112;6.966;2022-12-07T14:53:15;008;007;
26720;PMS1003;15950;51.112;6.966;2022-12-07T14:56:08;008;006;
26720;PMS1003;15950;51.112;6.966;2022-12-07T14:59:08;007;005;
26720;PMS1003;15950;51.112;6.966;2022-12-07T15:02:09;009;006;
26720;PMS1003;15950;51.112;6.966;2022-12-07T15:05:08;006;005;
26720;PMS1003;15950;51.112;6.966;2022-12-07T15:08:09;007;006;
26720;PMS1003;15950;51.112;6.966;2022-12-07T15:11:12;009;007;
26720;PMS1003;15950;51.112;6.966;2022-12-07T15:14:08;006;004;
26720;PMS1003;15950;51.112;6.966;2022-12-07T15:17:11;008;006;
26720;PMS1003;15950;51.112;6.966;2022-12-07T15:20:11;006;004;
26720;PMS1003;15950;51.112;6.966;2022-12-07T15:23:09;007;005;
26720;PMS1003;15950;51.112;6.966;2022-12-07T15:26:11;009;006;
26720;PMS1003;15950;51.112;6.966;2022-12-07T15:29:09;009;006;
26720;PMS1003;15950;51.112;6.966;2022-12-07T15:32:08;013;009;
26720;PMS1003;15950;51.112;6.966;2022-12-07T15:35:08;013;009;
26720;PMS1003;15950;51.112;6.966;2022-12-07T15:38:08;014;010;
26720;PMS1003;15950;51.112;6.966;2022-12-07T15:41:08;013;009;
26720;PMS1003;15950;51.112;6.966;2022-12-07T15:44:11;007;005;
26720;PMS1003;15950;51.112;6.966;2022-12-07T15:47:08;007;005;
26720;PMS1003;15950;51.112;6.966;2022-12-07T15:50:09;007;005;
26720;PMS1003;15950;51.112;6.966;2022-12-07T15:53:08;007;005;
26720;PMS1003;15950;51.112;6.966;2022-12-07T15:56:08;008;006;
26720;PMS1003;15950;51.112;6.966;2022-12-07T15:59:08;006;004;
26720;PMS1003;15950;51.112;6.966;2022-12-07T16:02:09;005;003;
26720;PMS1003;15950;51.112;6.966;2022-12-07T16:05:08;008;007;
26720;PMS1003;15950;51.112;6.966;2022-12-07T16:08:08;007;005;
26720;PMS1003;15950;51.112;6.966;2022-12-07T16:11:08;015;011;
26720;PMS1003;15950;51.112;6.966;2022-12-07T16:14:08;009;006;
26720;PMS1003;15950;51.112;6.966;2022-12-07T16:17:09;006;004;
26720;PMS1003;15950;51.112;6.966;2022-12-07T16:20:09;007;005;
26720;PMS1003;15950;51.112;6.966;2022-12-07T16:23:08;007;005;
26720;PMS1003;15950;51.112;6.966;2022-12-07T16:26:12;009;007;
26720;PMS1003;15950;51.112;6.966;2022-12-07T16:29:12;007;005;
26720;PMS1003;15950;51.112;6.966;2022-12-07T16:32:08;009;007;
26720;PMS1003;15950;51.112;6.966;2022-12-07T16:35:08;007;005;
26720;PMS1003;15950;51.112;6.966;2022-12-07T16:38:08;012;008;
26720;PMS1003;15950;51.112;6.966;2022-12-07T16:41:08;013;009;
26720;PMS1003;15950;51.112;6.966;2022-12-07T16:44:09;010;007;
26720;PMS1003;15950;51.112;6.966;2022-12-07T16:47:08;008;007;
26720;PMS1003;15950;51.112;6.966;2022-12-07T16:50:08;010;007;
26720;PMS1003;15950;51.112;6.966;2022-12-07T16:53:08;009;007;
26720;PMS1003;15950;51.112;6.966;2022-12-07T16:56:12;012;008;
26720;PMS1003;15950;51.112;6.966;2022-12-07T16:59:08;010;007;
26720;PMS1003;15950;51.112;6.966;2022-12-07T17:02:10;009;007;
26720;PMS1003;15950;51.112;6.966;2022-12-07T17:05:08;011;008;
26720;PMS1003;15950;51.112;6.966;2022-12-07T17:08:08;010;007;
26720;PMS1003;15950;51.112;6.966;2022-12-07T17:11:09;009;006;
26720;PMS1003;15950;51.112;6.966;2022-12-07T17:14:08;010;008;
26720;PMS1003;15950;51.112;6.966;2022-12-07T17:17:08;013;009;
26720;PMS1003;15950;51.112;6.966;2022-12-07T17:20:08;009;006;
26720;PMS1003;15950;51.112;6.966;2022-12-07T17:23:08;012;010;
26720;PMS1003;15950;51.112;6.966;2022-12-07T17:26:15;013;009;
26720;PMS1003;15950;51.112;6.966;2022-12-07T17:29:10;013;009;
26720;PMS1003;15950;51.112;6.966;2022-12-07T17:32:08;012;010;
26720;PMS1003;15950;51.112;6.966;2022-12-07T17:35:08;016;011;
26720;PMS1003;15950;51.112;6.966;2022-12-07T17:38:08;013;009;
26720;PMS1003;15950;51.112;6.966;2022-12-07T17:41:12;016;011;
26720;PMS1003;15950;51.112;6.966;2022-12-07T17:44:09;013;009;
26720;PMS1003;15950;51.112;6.966;2022-12-07T17:47:08;014;010;
26720;PMS1003;15950;51.112;6.966;2022-12-07T17:50:08;017;014;
26720;PMS1003;15950;51.112;6.966;2022-12-07T17:53:10;012;008;
26720;PMS1003;15950;51.112;6.966;2022-12-07T17:56:08;016;011;
26720;PMS1003;15950;51.112;6.966;2022-12-07T17:59:08;014;010;
26720;PMS1003;15950;51.112;6.966;2022-12-07T18:02:08;014;010;
26720;PMS1003;15950;51.112;6.966;2022-12-07T18:05:08;016;013;
26720;PMS1003;15950;51.112;6.966;2022-12-07T18:08:08;013;009;
26720;PMS1003;15950;51.112;6.966;2022-12-07T18:11:08;017;014;
26720;PMS1003;15950;51.112;6.966;2022-12-07T18:14:08;019;014;
26720;PMS1003;15950;51.112;6.966;2022-12-07T18:17:08;016;011;
26720;PMS1003;15950;51.112;6.966;2022-12-07T18:20:08;014;010;
26720;PMS1003;15950;51.112;6.966;2022-12-07T18:23:08;020;014;
26720;PMS1003;15950;51.112;6.966;2022-12-07T18:26:08;023;016;
26720;PMS1003;15950;51.112;6.966;2022-12-07T18:29:09;019;014;
26720;PMS1003;15950;51.112;6.966;2022-12-07T18:32:08;021;015;
26720;PMS1003;15950;51.112;6.966;2022-12-07T18:35:08;020;015;
26720;PMS1003;15950;51.112;6.966;2022-12-07T18:38:08;016;014;
26720;PMS1003;15950;51.112;6.966;2022-12-07T18:41:12;017;012;
26720;PMS1003;15950;51.112;6.966;2022-12-07T18:44:08;014;010;
26720;PMS1003;15950;51.112;6.966;2022-12-07T18:47:08;016;013;
26720;PMS1003;15950;51.112;6.966;2022-12-07T18:50:08;020;015;
26720;PMS1003;15950;51.112;6.966;2022-12-07T18:53:08;022;016;
26720;PMS1003;15950;51.112;6.966;2022-12-07T18:59:10;015;013;
26720;PMS1003;15950;51.112;6.966;2022-12-07T19:02:08;018;014;
26720;PMS1003;15950;51.112;6.966;2022-12-07T19:05:08;021;015;
26720;PMS1003;15950;51.112;6.966;2022-12-07T19:08:08;021;016;
26720;PMS1003;15950;51.112;6.966;2022-12-07T19:11:16;017;014;
26720;PMS1003;15950;51.112;6.966;2022-12-07T19:14:08;019;013;
26720;PMS1003;15950;51.112;6.966;2022-12-07T19:17:12;020;015;
26720;PMS1003;15950;51.112;6.966;2022-12-07T19:20:11;016;011;
26720;PMS1003;15950;51.112;6.966;2022-12-07T19:23:08;016;012;
26720;PMS1003;15950;51.112;6.966;2022-12-07T19:26:08;020;016;
26720;PMS1003;15950;51.112;6.966;2022-12-07T19:29:08;024;017;
26720;PMS1003;15950;51.112;6.966;2022-12-07T19:32:08;025;018;
26720;PMS1003;15950;51.112;6.966;2022-12-07T19:35:08;027;019;
26720;PMS1003;15950;51.112;6.966;2022-12-07T19:38:08;023;016;
26720;PMS1003;15950;51.112;6.966;2022-12-07T19:41:11;023;016;
26720;PMS1003;15950;51.112;6.966;2022-12-07T19:44:12;024;017;
26720;PMS1003;15950;51.112;6.966;2022-12-07T19:47:08;023;017;
26720;PMS1003;15950;51.112;6.966;2022-12-07T19:50:08;026;018;
26720;PMS1003;15950;51.112;6.966;2022-12-07T19:53:08;022;018;
26720;PMS1003;15950;51.112;6.966;2022-12-07T19:56:12;021;016;
26720;PMS1003;15950;51.112;6.966;2022-12-07T19:59:08;019;013;
26720;PMS1003;15950;51.112;6.966;2022-12-07T20:02:14;027;021;
26720;PMS1003;15950;51.112;6.966;2022-12-07T20:05:08;026;019;
26720;PMS1003;15950;51.112;6.966;2022-12-07T20:08:08;023;018;
26720;PMS1003;15950;51.112;6.966;2022-12-07T20:11:08;026;018;
26720;PMS1003;15950;51.112;6.966;2022-12-07T20:14:09;027;019;
26720;PMS1003;15950;51.112;6.966;2022-12-07T20:17:08;020;014;
26720;PMS1003;15950;51.112;6.966;2022-12-07T20:20:08;023;019;
26720;PMS1003;15950;51.112;6.966;2022-12-07T20:23:08;021;015;
26720;PMS1003;15950;51.112;6.966;2022-12-07T20:26:09;024;017;
26720;PMS1003;15950;51.112;6.966;2022-12-07T20:29:09;020;018;
26720;PMS1003;15950;51.112;6.966;2022-12-07T20:32:09;021;017;
26720;PMS1003;15950;51.112;6.966;2022-12-07T20:35:08;023;016;
26720;PMS1003;15950;51.112;6.966;2022-12-07T20:38:09;021;015;
26720;PMS1003;15950;51.112;6.966;2022-12-07T20:41:09;025;018;
26720;PMS1003;15950;51.112;6.966;2022-12-07T20:44:08;023;016;
26720;PMS1003;15950;51.112;6.966;2022-12-07T20:47:08;023;017;
26720;PMS1003;15950;51.112;6.966;2022-12-07T20:50:08;016;011;
26720;PMS1003;15950;51.112;6.966;2022-12-07T20:53:08;024;018;
26720;PMS1003;15950;51.112;6.966;2022-12-07T20:56:16;019;013;
26720;PMS1003;15950;51.112;6.966;2022-12-07T20:59:10;018;016;
26720;PMS1003;15950;51.112;6.966;2022-12-07T21:02:10;023;016;
26720;PMS1003;15950;51.112;6.966;2022-12-07T21:05:08;021;015;
26720;PMS1003;15950;51.112;6.966;2022-12-07T21:08:08;025;018;
26720;PMS1003;15950;51.112;6.966;2022-12-07T21:11:09;024;018;
26720;PMS1003;15950;51.112;6.966;2022-12-07T21:14:08;024;018;
26720;PMS1003;15950;51.112;6.966;2022-12-07T21:17:08;019;013;
26720;PMS1003;15950;51.112;6.966;2022-12-07T21:20:08;027;020;
26720;PMS1003;15950;51.112;6.966;2022-12-07T21:23:08;023;018;
26720;PMS1003;15950;51.112;6.966;2022-12-07T21:26:12;023;018;
26720;PMS1003;15950;51.112;6.966;2022-12-07T21:29:08;018;015;
26720;PMS1003;15950;51.112;6.966;2022-12-07T21:32:08;020;014;
26720;PMS1003;15950;51.112;6.966;2022-12-07T21:35:08;020;015;
26720;PMS1003;15950;51.112;6.966;2022-12-07T21:38:08;018;015;
26720;PMS1003;15950;51.112;6.966;2022-12-07T21:44:08;016;015;
26720;PMS1003;15950;51.112;6.966;2022-12-07T21:47:08;021;015;
26720;PMS1003;15950;51.112;6.966;2022-12-07T21:50:08;019;015;
26720;PMS1003;15950;51.112;6.966;2022-12-07T21:53:08;017;013;
26720;PMS1003;15950;51.112;6.966;2022-12-07T21:59:12;016;012;
26720;PMS1003;15950;51.112;6.966;2022-12-07T22:02:12;018;014;
26720;PMS1003;15950;51.112;6.966;2022-12-07T22:05:08;016;011;
26720;PMS1003;15950;51.112;6.966;2022-12-07T22:08:08;021;015;
26720;PMS1003;15950;51.112;6.966;2022-12-07T22:11:08;017;013;
26720;PMS1003;15950;51.112;6.966;2022-12-07T22:14:08;016;011;
26720;PMS1003;15950;51.112;6.966;2022-12-07T22:17:08;021;017;
26720;PMS1003;15950;51.112;6.966;2022-12-07T22:20:09;021;017;
26720;PMS1003;15950;51.112;6.966;2022-12-07T22:23:08;013;009;
26720;PMS1003;15950;51.112;6.966;2022-12-07T22:26:09;021;016;
26720;PMS1003;15950;51.112;6.966;2022-12-07T22:29:08;017;013;
26720;PMS1003;15950;51.112;6.966;2022-12-07T22:32:08;019;013;
26720;PMS1003;15950;51.112;6.966;2022-12-07T22:35:08;018;015;
26720;PMS1003;15950;51.112;6.966;2022-12-07T22:38:08;017;013;
26720;PMS1003;15950;51.112;6.966;2022-12-07T22:41:09;019;013;
26720;PMS1003;15950;51.112;6.966;2022-12-07T22:44:08;016;011;
26720;PMS1003;15950;51.112;6.966;2022-12-07T22:47:08;021;016;
26720;PMS1003;15950;51.112;6.966;2022-12-07T22:50:08;020;016;
26720;PMS1003;15950;51.112;6.966;2022-12-07T22:53:08;016;014;
26720;PMS1003;15950;51.112;6.966;2022-12-07T22:56:08;021;015;
26720;PMS1003;15950;51.112;6.966;2022-12-07T22:59:08;018;013;
26720;PMS1003;15950;51.112;6.966;2022-12-07T23:02:08;017;012;